»·PEaware :: N915TB KMRY-KLAS

N915TB :: KMRY-KLAS

FLIGHT INFORMATION

Flight Status: Arrived
Operator: Privately registered:
United States
More flights under this callsign
Pilot: Jake M. (20491)
Aircraft: SOCATA TBM-900
(TBM9)
More flights by this aircraft type
Origin: KMRY Monterey Peninsula
United States
Destination: KLAS McCarran Intl
United States
More flights between these airports :: More routes between these airports
Route: +TORO7 SNS V230 FRA LIDAT V105 LAS
File this flight plan on PilotEdge
Remarks:
Altitude:
(Current/Filed)
31,000ft
Speed:
(Current/Filed)
310kts
Departed: 16-Jan-20 07:25 PM
Arrived: 16-Jan-20 08:44 PM
Distance/Time
Traveled:
566nm/1:19
Distance/Time
To Go:
Arrived

Flight Plot

Page will automatically refresh every two minutes.

Flight plan parsing failed; only flown route is shown


Map Options




Map Legend


Flown Route
Filed Route
Departure Airport
Arrival Airport
Navaid (VOR, NDB)
Fix

Horizontal Profiles

Position Reports

Time Latitude Longitude Heading Altitude Ground
Speed
16-Jan-20 19:15 36.588807 -121.856955 359 161ft 0kts
16-Jan-20 19:16 36.588807 -121.856955 359 161ft 0kts
16-Jan-20 19:17 36.588807 -121.856955 359 161ft 0kts
16-Jan-20 19:18 36.588807 -121.856955 359 161ft 0kts
16-Jan-20 19:19 36.588807 -121.856955 359 161ft 0kts
16-Jan-20 19:20 36.588807 -121.856955 359 161ft 0kts
16-Jan-20 19:21 36.588807 -121.856955 359 161ft 0kts
16-Jan-20 19:22 36.589422 -121.855835 75 161ft 0kts
16-Jan-20 19:23 36.589669 -121.854614 73 162ft 0kts
16-Jan-20 19:24 36.587778 -121.846742 113 184ft 94kts
16-Jan-20 19:25 36.586225 -121.804797 73 1715ft 136kts
16-Jan-20 19:26 36.602608 -121.760626 62 3530ft 149kts
16-Jan-20 19:27 36.620664 -121.714194 59 5566ft 157kts
16-Jan-20 19:28 36.640845 -121.662299 59 7346ft 173kts
16-Jan-20 19:29 36.662095 -121.607603 60 9194ft 178kts
16-Jan-20 19:30 36.667822 -121.543502 84 11020ft 192kts
16-Jan-20 19:31 36.672195 -121.475505 85 12766ft 204kts
16-Jan-20 19:32 36.676920 -121.401977 83 14395ft 219kts
16-Jan-20 19:33 36.681904 -121.324389 82 15973ft 233kts
16-Jan-20 19:34 36.687071 -121.242943 82 17545ft 245kts
16-Jan-20 19:35 36.692513 -121.156330 81 19121ft 253kts
16-Jan-20 19:36 36.697999 -121.067842 80 20554ft 261kts
16-Jan-20 19:37 36.703575 -120.976760 80 21874ft 268kts
16-Jan-20 19:38 36.709262 -120.882676 80 23074ft 277kts
16-Jan-20 19:39 36.715046 -120.785755 79 24161ft 284kts
16-Jan-20 19:40 36.731305 -120.690394 68 25119ft 294kts
16-Jan-20 19:41 36.749439 -120.588418 67 26402ft 305kts
16-Jan-20 19:42 36.768019 -120.483851 68 27627ft 313kts
16-Jan-20 19:43 36.786776 -120.377461 67 28764ft 319kts
16-Jan-20 19:44 36.804489 -120.276608 68 29603ft 325kts
16-Jan-20 19:45 36.827118 -120.168918 47 30705ft 313kts
16-Jan-20 19:46 36.871208 -120.078095 45 31113ft 339kts
16-Jan-20 19:47 36.920298 -119.977246 47 31092ft 364kts
16-Jan-20 19:48 36.969950 -119.874555 48 31097ft 377kts
16-Jan-20 19:49 37.020891 -119.769124 49 31096ft 382kts
16-Jan-20 19:50 37.071751 -119.663540 49 31097ft 385kts
16-Jan-20 19:51 37.111076 -119.567157 70 31094ft 400kts
16-Jan-20 19:52 37.123972 -119.466227 75 31102ft 403kts
16-Jan-20 19:53 37.141202 -119.350036 75 31093ft 404kts
16-Jan-20 19:54 37.156878 -119.244363 76 31066ft 404kts
16-Jan-20 19:55 37.174711 -119.123260 76 31058ft 402kts
16-Jan-20 19:56 37.193923 -118.991831 77 31032ft 403kts
16-Jan-20 19:57 37.214295 -118.851153 77 30955ft 405kts
16-Jan-20 19:58 37.235927 -118.700593 77 30914ft 405kts
16-Jan-20 19:59 37.258215 -118.543790 78 30912ft 404kts
16-Jan-20 20:00 37.281345 -118.379554 78 30909ft 404kts
16-Jan-20 20:01 37.300383 -118.242918 79 30884ft 402kts
16-Jan-20 20:02 37.322105 -118.085691 79 30887ft 399kts
16-Jan-20 20:03 37.343279 -117.931009 81 30875ft 398kts
16-Jan-20 20:04 37.361880 -117.793591 81 30865ft 398kts
16-Jan-20 20:05 37.380325 -117.656018 81 30867ft 397kts
16-Jan-20 20:06 37.398517 -117.519235 81 30869ft 397kts
16-Jan-20 20:07 37.415891 -117.381873 89 30860ft 396kts
16-Jan-20 20:08 37.387863 -117.257486 127 30857ft 369kts
16-Jan-20 20:09 37.318191 -117.181265 162 30862ft 324kts
16-Jan-20 20:10 37.242222 -117.118542 159 30863ft 328kts
16-Jan-20 20:11 37.166837 -117.054872 160 30878ft 327kts
16-Jan-20 20:12 37.091271 -116.991187 160 30896ft 328kts
16-Jan-20 20:13 37.013053 -116.925475 159 29211ft 352kts
16-Jan-20 20:14 36.930881 -116.856539 158 27028ft 357kts
16-Jan-20 20:15 36.850106 -116.788956 158 25138ft 346kts
16-Jan-20 20:16 36.773071 -116.720974 155 23910ft 325kts
16-Jan-20 20:17 36.705253 -116.655487 156 23909ft 296kts
16-Jan-20 20:18 36.641105 -116.593741 157 23913ft 286kts
16-Jan-20 20:19 36.578758 -116.533830 157 23917ft 282kts
16-Jan-20 20:20 36.516552 -116.474168 157 23922ft 281kts
16-Jan-20 20:21 36.454825 -116.415083 157 23924ft 280kts
16-Jan-20 20:23 36.392561 -116.355607 157 23924ft 280kts
16-Jan-20 20:24 36.331234 -116.297135 158 23910ft 278kts
16-Jan-20 20:25 36.269887 -116.238785 158 23911ft 278kts
16-Jan-20 20:26 36.208651 -116.180649 158 23911ft 277kts
16-Jan-20 20:27 36.147278 -116.122500 158 23912ft 277kts
16-Jan-20 20:28 36.085873 -116.064438 158 23914ft 277kts
16-Jan-20 20:29 36.028314 -115.996006 118 23017ft 350kts
16-Jan-20 20:30 36.037423 -115.866065 92 21541ft 386kts
16-Jan-20 20:31 36.045742 -115.733469 92 20033ft 387kts
16-Jan-20 20:32 36.053755 -115.602471 93 18508ft 376kts
16-Jan-20 20:33 36.061353 -115.475580 92 17014ft 365kts
16-Jan-20 20:34 36.068022 -115.362460 93 15601ft 345kts
16-Jan-20 20:35 36.073853 -115.261936 93 14260ft 334kts
16-Jan-20 20:36 36.060395 -115.143216 111 12257ft 315kts
16-Jan-20 20:37 36.039717 -115.038759 111 10314ft 305kts
16-Jan-20 20:38 36.068552 -114.956246 8 8429ft 307kts
16-Jan-20 20:39 36.149718 -114.953571 1 8009ft 276kts
16-Jan-20 20:40 36.192546 -115.006462 261 7132ft 259kts
16-Jan-20 20:41 36.184085 -115.088445 241 5747ft 219kts
16-Jan-20 20:42 36.145150 -115.130494 201 3653ft 164kts
16-Jan-20 20:43 36.111051 -115.149703 204 2444ft 119kts
16-Jan-20 20:44 36.087663 -115.163287 206 2131ft 36kts
16-Jan-20 20:45 36.083781 -115.166630 231 2151ft 0kts
16-Jan-20 20:45 36.081982 -115.168049 208 2159ft 17kts
16-Jan-20 20:47 36.081274 -115.170029 278 2166ft 0kts
16-Jan-20 20:48 36.081274 -115.170029 278 2166ft 0kts
16-Jan-20 20:48 36.081274 -115.170029 278 2166ft 0kts
16-Jan-20 20:50 36.081274 -115.170029 278 2166ft 0kts
16-Jan-20 20:50 36.081274 -115.170029 278 2166ft 0kts
16-Jan-20 20:51 36.081274 -115.170029 278 2166ft 0kts
16-Jan-20 20:53 31.929340 -111.899221 265 2369ft 0kts
16-Jan-20 20:53 31.929340 -111.899221 265 2369ft 0kts
16-Jan-20 20:54 31.929340 -111.899221 265 2369ft 0kts
16-Jan-20 20:55 31.929340 -111.899221 265 2369ft 0kts
16-Jan-20 20:56 31.929340 -111.899221 265 2369ft 0kts
16-Jan-20 20:57 31.929340 -111.899221 265 2369ft 0kts
16-Jan-20 20:58 31.929340 -111.899221 265 2369ft 0kts

Navigation Log

Ident Type
Flight plan parsing failed, navigation log unavailable